Time;durP1;ratioP1;P1;durP2;ratioP2;P2;SDS_P1;SDS_P2;PMS_P1;PMS_P2;Temp;Humidity;BMP_temperature;BMP_pressure;BME280_temperature;BME280_humidity;BME280_pressure;Samples;Min_cycle;Max_cycle;Signal;HPM_P1;HPM_P2
2021/12/26 00:00:32;;;;;;;15.57;6.38;;;12.00;99.90;;;;;;4994351;28;20026;-74
2021/12/26 00:02:59;;;;;;;12.65;5.53;;;12.00;99.90;;;;;;4994223;28;20030;-74
2021/12/26 00:05:26;;;;;;;17.95;5.93;;;11.90;99.90;;;;;;4994215;28;20018;-76
2021/12/26 00:07:51;;;;;;;11.75;4.90;;;12.00;99.90;;;;;;4994211;28;20530;-74
2021/12/26 00:10:24;;;;;;;15.25;6.35;;;12.00;99.90;;;;;;4994152;28;20027;-74
2021/12/26 00:12:49;;;;;;;28.60;17.70;;;11.90;99.90;;;;;;4994131;28;20471;-74
2021/12/26 00:15:16;;;;;;;24.70;19.50;;;11.80;99.90;;;;;;4994137;28;20022;-74
2021/12/26 00:17:42;;;;;;;23.48;18.80;;;11.80;99.90;;;;;;4994090;28;20471;-75
2021/12/26 00:20:10;;;;;;;25.55;20.05;;;11.80;99.90;;;;;;4994061;28;20053;-74
2021/12/26 00:22:36;;;;;;;23.42;14.45;;;11.90;99.90;;;;;;4994534;28;20042;-75
2021/12/26 00:25:02;;;;;;;15.85;9.45;;;11.90;99.90;;;;;;4993974;28;20501;-74
2021/12/26 00:27:28;;;;;;;16.48;8.05;;;11.90;99.90;;;;;;4992697;28;20030;-74
2021/12/26 00:29:53;;;;;;;15.07;7.50;;;11.90;99.90;;;;;;4993938;28;20025;-74
2021/12/26 00:32:19;;;;;;;15.50;10.02;;;11.90;99.90;;;;;;4994123;28;20030;-74
2021/12/26 00:34:45;;;;;;;19.10;13.23;;;11.90;99.90;;;;;;4993908;28;20391;-74
2021/12/26 00:37:11;;;;;;;14.93;8.10;;;11.90;99.90;;;;;;4993851;28;20030;-74
2021/12/26 00:39:37;;;;;;;18.88;5.63;;;11.90;99.90;;;;;;4997921;28;20050;-76
2021/12/26 00:42:04;;;;;;;10.18;4.88;;;11.90;99.90;;;;;;4997878;28;20027;-74
2021/12/26 00:44:29;;;;;;;12.90;8.32;;;11.80;99.90;;;;;;4997337;28;20046;-75
2021/12/26 00:46:55;;;;;;;15.70;8.90;;;11.70;99.90;;;;;;4997861;28;20109;-75
2021/12/26 00:49:23;;;;;;;16.20;12.00;;;11.70;99.90;;;;;;4997781;28;20561;-76
2021/12/26 00:51:50;;;;;;;17.92;8.27;;;11.80;99.90;;;;;;4998038;28;20363;-73
2021/12/26 00:54:17;;;;;;;12.52;6.43;;;11.80;99.90;;;;;;4997762;28;20026;-76
2021/12/26 00:56:43;;;;;;;12.98;6.40;;;11.80;99.90;;;;;;4997959;28;20026;-74
2021/12/26 00:59:08;;;;;;;9.93;5.30;;;11.80;99.90;;;;;;4997621;28;20181;-75
2021/12/26 01:01:35;;;;;;;10.95;4.30;;;11.90;99.90;;;;;;4997557;28;20124;-75
2021/12/26 01:04:00;;;;;;;10.23;4.65;;;11.90;99.90;;;;;;4997491;28;20022;-73
2021/12/26 01:06:27;;;;;;;11.32;4.78;;;12.00;99.90;;;;;;4997536;28;20390;-74
2021/12/26 01:08:54;;;;;;;15.18;5.07;;;11.90;99.90;;;;;;4997494;28;20018;-76
2021/12/26 01:11:34;;;;;;;10.20;4.35;;;11.90;99.90;;;;;;4997395;28;20031;-74
2021/12/26 01:14:01;;;;;;;10.35;4.30;;;11.90;99.90;;;;;;4997670;28;20356;-74
2021/12/26 01:16:28;;;;;;;11.20;4.05;;;11.90;99.90;;;;;;4997325;28;20102;-75
2021/12/26 01:19:03;;;;;;;14.10;6.05;;;11.90;99.90;;;;;;4997294;28;20410;-74
2021/12/26 01:21:29;;;;;;;14.90;5.65;;;11.90;99.90;;;;;;4997509;28;20113;-74
2021/12/26 01:23:59;;;;;;;11.82;4.32;;;11.90;99.90;;;;;;4997089;28;20098;-74
2021/12/26 01:26:26;;;;;;;12.48;3.97;;;11.90;99.90;;;;;;4997204;28;20112;-74
2021/12/26 01:28:52;;;;;;;9.95;4.05;;;11.90;99.90;;;;;;4997114;28;20077;-74
2021/12/26 01:31:20;;;;;;;10.82;4.10;;;12.00;99.90;;;;;;4997254;28;20061;-75
2021/12/26 01:33:59;;;;;;;6.05;3.35;;;12.00;99.90;;;;;;4997012;28;20080;-74
2021/12/26 01:36:28;;;;;;;12.05;4.72;;;12.00;99.90;;;;;;4996986;28;20468;-74
2021/12/26 01:38:56;;;;;;;15.50;4.57;;;11.90;99.90;;;;;;4995659;28;20026;-74
2021/12/26 01:41:22;;;;;;;13.55;4.30;;;11.90;99.90;;;;;;4996766;28;20506;-74
2021/12/26 01:43:52;;;;;;;11.68;5.13;;;12.00;99.90;;;;;;4996569;28;20105;-75
2021/12/26 01:46:18;;;;;;;12.75;5.03;;;12.00;99.90;;;;;;4995264;28;20445;-74
2021/12/26 01:48:44;;;;;;;10.07;3.58;;;12.00;99.90;;;;;;4996533;28;20056;-75
2021/12/26 01:51:10;;;;;;;15.90;4.10;;;12.00;99.90;;;;;;4996008;28;20079;-74
2021/12/26 01:53:38;;;;;;;12.57;4.15;;;12.00;99.90;;;;;;4996594;28;20546;-75
2021/12/26 01:56:07;;;;;;;10.38;4.18;;;12.00;99.90;;;;;;4996864;28;20033;-74
2021/12/26 01:58:36;;;;;;;10.38;4.25;;;12.00;99.90;;;;;;4996871;28;20022;-74
2021/12/26 02:01:10;;;;;;;14.18;4.47;;;12.00;99.90;;;;;;4996505;28;20076;-74
2021/12/26 02:03:38;;;;;;;10.05;4.93;;;12.00;99.90;;;;;;4996395;28;20034;-75
2021/12/26 02:06:06;;;;;;;12.88;4.07;;;12.00;99.90;;;;;;4996877;28;20022;-74
2021/12/26 02:08:32;;;;;;;11.48;3.53;;;12.00;99.90;;;;;;4995130;28;20045;-75
2021/12/26 02:11:02;;;;;;;11.02;3.72;;;12.00;99.90;;;;;;4996367;28;20053;-74
2021/12/26 02:13:29;;;;;;;12.70;4.00;;;12.10;99.90;;;;;;4996277;28;20030;-75
2021/12/26 02:15:56;;;;;;;8.48;3.78;;;12.10;99.90;;;;;;4996245;28;20371;-75
2021/12/26 02:18:22;;;;;;;9.88;3.95;;;12.10;99.90;;;;;;4994894;28;20109;-75
2021/12/26 02:21:06;;;;;;;12.40;4.00;;;12.10;99.90;;;;;;4996170;28;20033;-74
2021/12/26 02:23:43;;;;;;;12.10;4.43;;;12.00;99.90;;;;;;4996076;28;20018;-74
2021/12/26 02:28:40;;;;;;;9.13;4.15;;;12.00;99.90;;;;;;4996544;28;20117;-75
2021/12/26 02:31:06;;;;;;;15.50;4.80;;;12.00;99.90;;;;;;4996222;28;20026;-75
2021/12/26 02:33:32;;;;;;;11.55;3.70;;;12.00;99.90;;;;;;4996121;28;20026;-74
2021/12/26 02:35:58;;;;;;;8.75;3.58;;;12.00;99.90;;;;;;4996145;28;20034;-75
2021/12/26 02:38:24;;;;;;;14.05;4.53;;;11.90;99.90;;;;;;4995813;28;20508;-75
2021/12/26 02:40:51;;;;;;;11.70;3.72;;;11.90;99.90;;;;;;4995727;28;20097;-74
2021/12/26 02:43:19;;;;;;;11.05;3.97;;;11.90;99.90;;;;;;4995508;28;20068;-75
2021/12/26 02:45:45;;;;;;;8.43;3.45;;;11.90;99.90;;;;;;4995923;28;20073;-74
2021/12/26 02:48:11;;;;;;;17.08;5.10;;;11.90;99.90;;;;;;4995870;28;20033;-75
2021/12/26 02:50:39;;;;;;;10.98;4.40;;;11.90;99.90;;;;;;4995636;28;20030;-75
2021/12/26 02:53:06;;;;;;;11.25;3.65;;;11.90;99.90;;;;;;4995840;28;20077;-74
2021/12/26 02:55:32;;;;;;;12.15;4.22;;;11.90;99.90;;;;;;4995518;28;20023;-74
2021/12/26 02:58:09;;;;;;;9.57;3.58;;;11.90;99.90;;;;;;4995461;28;20060;-74
2021/12/26 03:00:53;;;;;;;10.07;3.45;;;11.90;99.90;;;;;;4995482;28;20030;-74
2021/12/26 03:03:19;;;;;;;12.77;3.60;;;11.90;99.90;;;;;;4995599;28;20054;-74
2021/12/26 03:05:46;;;;;;;10.68;3.40;;;11.90;99.90;;;;;;4995534;28;20406;-74
2021/12/26 03:08:18;;;;;;;12.32;3.78;;;11.90;99.90;;;;;;4995529;28;20459;-74
2021/12/26 03:10:44;;;;;;;15.23;4.10;;;11.90;99.90;;;;;;4995252;28;20054;-74
2021/12/26 03:13:11;;;;;;;8.57;2.60;;;11.90;99.90;;;;;;4995403;28;20030;-74
2021/12/26 03:15:38;;;;;;;11.60;3.13;;;11.90;99.90;;;;;;4995384;28;20113;-74
2021/12/26 03:18:05;;;;;;;10.13;3.42;;;11.80;99.90;;;;;;4995111;28;20030;-75
2021/12/26 03:20:34;;;;;;;12.77;3.70;;;11.80;99.90;;;;;;4995016;28;20030;-74
2021/12/26 03:23:01;;;;;;;12.40;4.10;;;11.80;99.90;;;;;;4995443;28;20034;-75
2021/12/26 03:25:28;;;;;;;9.73;3.67;;;11.80;99.90;;;;;;4995486;28;20026;-74
2021/12/26 03:27:54;;;;;;;11.63;2.97;;;11.80;99.90;;;;;;4994933;28;20415;-74
2021/12/26 03:30:24;;;;;;;9.60;3.08;;;11.80;99.90;;;;;;4994834;28;20056;-75
2021/12/26 03:32:50;;;;;;;12.82;4.18;;;11.80;99.90;;;;;;4994779;28;20450;-74
2021/12/26 03:35:17;;;;;;;11.63;3.47;;;11.70;99.90;;;;;;4995061;28;20049;-74
2021/12/26 03:37:43;;;;;;;11.75;3.47;;;11.70;99.90;;;;;;4994773;28;20434;-73
2021/12/26 03:40:10;;;;;;;10.15;2.90;;;11.70;99.90;;;;;;4994620;28;20026;-75
2021/12/26 03:42:36;;;;;;;10.98;2.42;;;11.70;99.90;;;;;;4994130;28;20042;-76
2021/12/26 03:45:03;;;;;;;9.23;2.55;;;11.70;99.90;;;;;;4994892;28;20113;-74
2021/12/26 03:47:31;;;;;;;7.95;2.50;;;11.70;99.90;;;;;;4993273;28;20023;-75
2021/12/26 03:49:57;;;;;;;7.65;2.70;;;11.70;99.90;;;;;;4994756;28;20454;-74
2021/12/26 03:52:24;;;;;;;13.50;5.72;;;11.70;99.90;;;;;;4994473;28;20094;-74
2021/12/26 03:54:51;;;;;;;10.95;4.22;;;11.60;99.90;;;;;;4994378;28;20031;-74
2021/12/26 03:57:17;;;;;;;11.15;6.00;;;11.60;99.90;;;;;;4994646;28;20026;-75
2021/12/26 03:59:43;;;;;;;7.25;2.20;;;11.60;99.90;;;;;;4994868;28;20030;-75
2021/12/26 04:02:10;;;;;;;8.75;2.17;;;11.60;99.90;;;;;;4994527;28;20113;-74
2021/12/26 04:04:35;;;;;;;10.73;3.08;;;11.60;99.90;;;;;;4992945;28;20402;-74
2021/12/26 04:07:01;;;;;;;11.65;4.45;;;11.60;99.90;;;;;;4994202;28;20026;-74
2021/12/26 04:09:27;;;;;;;8.68;1.90;;;11.50;99.90;;;;;;4994180;28;20031;-75
2021/12/26 04:11:53;;;;;;;8.23;1.70;;;11.50;99.90;;;;;;4994652;28;20374;-73
2021/12/26 04:14:18;;;;;;;9.30;3.40;;;11.50;99.90;;;;;;4994034;28;20030;-74
2021/12/26 04:16:46;;;;;;;7.00;2.70;;;11.50;99.90;;;;;;4992804;28;20080;-74
2021/12/26 04:19:11;;;;;;;11.95;4.32;;;11.40;99.90;;;;;;4994379;28;20030;-73
2021/12/26 04:21:37;;;;;;;8.60;2.95;;;11.40;99.90;;;;;;4993883;28;20042;-74
2021/12/26 04:24:04;;;;;;;8.27;3.00;;;11.40;99.90;;;;;;4992669;28;20030;-74
2021/12/26 04:26:31;;;;;;;8.82;2.05;;;11.40;99.90;;;;;;4994024;28;20018;-74
2021/12/26 04:28:56;;;;;;;10.05;2.28;;;11.30;99.90;;;;;;4994543;28;20109;-74
2021/12/26 04:31:22;;;;;;;7.47;2.00;;;11.30;99.90;;;;;;4992619;28;20062;-74
2021/12/26 04:33:48;;;;;;;8.18;2.08;;;11.30;99.90;;;;;;4992665;28;20038;-76
2021/12/26 04:36:14;;;;;;;4.43;1.60;;;11.30;99.90;;;;;;4993937;28;20038;-75
2021/12/26 04:38:41;;;;;;;9.50;1.90;;;11.30;99.90;;;;;;4993903;28;20026;-74
2021/12/26 04:41:07;;;;;;;3.92;1.58;;;11.30;99.90;;;;;;4993802;28;20026;-74
2021/12/26 04:43:36;;;;;;;4.78;2.15;;;11.30;99.90;;;;;;4993396;28;20458;-74
2021/12/26 04:46:05;;;;;;;5.63;1.83;;;11.30;99.90;;;;;;4993818;28;20014;-76
2021/12/26 04:48:37;;;;;;;8.85;1.83;;;11.20;99.90;;;;;;4994119;28;20100;-74
2021/12/26 04:51:04;;;;;;;7.88;2.35;;;11.10;99.90;;;;;;4994109;28;20105;-74
2021/12/26 04:53:30;;;;;;;5.80;1.98;;;11.10;99.90;;;;;;4993771;28;20022;-74
2021/12/26 04:55:56;;;;;;;6.20;1.60;;;11.20;99.90;;;;;;4994243;28;20026;-75
2021/12/26 04:58:22;;;;;;;4.45;1.45;;;11.20;99.90;;;;;;4993758;28;20027;-74
2021/12/26 05:00:47;;;;;;;18.73;8.05;;;11.20;99.90;;;;;;4993693;28;20511;-74
2021/12/26 05:03:14;;;;;;;20.92;6.65;;;11.20;99.90;;;;;;4994087;28;20081;-74
2021/12/26 05:05:40;;;;;;;22.00;9.50;;;11.10;99.90;;;;;;4993606;28;20026;-75
2021/12/26 05:08:06;;;;;;;42.85;18.85;;;11.10;99.90;;;;;;4993860;28;20528;-74
2021/12/26 05:10:32;;;;;;;30.77;12.68;;;11.10;99.90;;;;;;4993649;28;20487;-74
2021/12/26 05:13:00;;;;;;;35.90;17.20;;;11.10;99.90;;;;;;4993578;28;20117;-75
2021/12/26 05:15:26;;;;;;;40.88;17.85;;;11.10;99.90;;;;;;4993566;28;20026;-74
2021/12/26 05:17:54;;;;;;;34.22;16.75;;;11.10;99.90;;;;;;4993519;28;20034;-74
2021/12/26 05:20:21;;;;;;;22.30;8.98;;;11.10;99.90;;;;;;4993537;28;20027;-74
2021/12/26 05:22:48;;;;;;;18.20;6.43;;;11.10;99.90;;;;;;4993404;28;20030;-74
2021/12/26 05:25:14;;;;;;;15.15;4.07;;;11.10;99.90;;;;;;4995312;28;20026;-74
2021/12/26 05:27:40;;;;;;;14.77;5.60;;;11.10;99.90;;;;;;4997098;28;20027;-74
2021/12/26 05:30:08;;;;;;;18.00;4.55;;;11.10;99.90;;;;;;4997082;28;20080;-75
2021/12/26 05:32:34;;;;;;;16.38;3.05;;;11.10;99.90;;;;;;4997024;28;20072;-75
2021/12/26 05:35:00;;;;;;;12.98;3.17;;;11.10;99.90;;;;;;4997015;28;20030;-74
2021/12/26 05:37:25;;;;;;;11.43;3.40;;;11.10;99.90;;;;;;4997218;28;20459;-74
2021/12/26 05:39:51;;;;;;;10.05;3.33;;;11.10;99.90;;;;;;4996899;28;20026;-73
2021/12/26 05:42:17;;;;;;;18.02;3.30;;;11.10;99.90;;;;;;4996788;28;20053;-75
2021/12/26 05:44:44;;;;;;;17.10;3.90;;;11.10;99.90;;;;;;4996387;28;20046;-73
2021/12/26 05:47:10;;;;;;;19.65;3.40;;;11.10;99.90;;;;;;4996790;28;20486;-74
2021/12/26 05:49:35;;;;;;;12.00;3.42;;;11.10;99.90;;;;;;4995485;28;20026;-75
2021/12/26 05:52:01;;;;;;;16.75;3.63;;;11.20;99.90;;;;;;4996920;28;20501;-74
2021/12/26 05:54:27;;;;;;;15.32;3.33;;;11.20;99.90;;;;;;4996967;28;20096;-75
2021/12/26 05:56:53;;;;;;;25.48;5.25;;;11.20;99.90;;;;;;4996591;28;20489;-74
2021/12/26 05:59:19;;;;;;;32.08;9.45;;;11.20;99.90;;;;;;4996546;28;20077;-74
2021/12/26 06:01:44;;;;;;;16.95;5.25;;;11.30;99.90;;;;;;4996476;28;20474;-74
2021/12/26 06:04:10;;;;;;;19.77;5.00;;;11.20;99.90;;;;;;4996396;28;20041;-75
2021/12/26 06:06:36;;;;;;;17.38;4.22;;;11.20;99.90;;;;;;4995104;28;20054;-74
2021/12/26 06:09:03;;;;;;;15.20;4.03;;;11.20;99.90;;;;;;4996389;28;20033;-74
2021/12/26 06:11:29;;;;;;;14.80;3.85;;;11.20;99.90;;;;;;4995100;28;20019;-75
2021/12/26 06:13:55;;;;;;;12.30;2.92;;;11.20;99.90;;;;;;4996295;28;20026;-74
2021/12/26 06:16:20;;;;;;;13.07;2.45;;;11.20;99.90;;;;;;4996473;28;20046;-75
2021/12/26 06:18:46;;;;;;;12.68;2.90;;;11.10;99.90;;;;;;4996224;28;20038;-75
2021/12/26 06:21:12;;;;;;;11.63;3.13;;;11.10;99.90;;;;;;4996207;28;20026;-74
2021/12/26 06:23:37;;;;;;;16.58;4.05;;;11.10;99.90;;;;;;4996057;28;20041;-74
2021/12/26 06:26:03;;;;;;;12.60;3.97;;;11.10;99.90;;;;;;4996071;28;20025;-75
2021/12/26 06:28:29;;;;;;;12.60;2.80;;;11.10;99.90;;;;;;4996065;28;20050;-74
2021/12/26 06:30:55;;;;;;;10.10;2.60;;;11.10;99.90;;;;;;4996015;28;20521;-74
2021/12/26 06:33:20;;;;;;;8.10;2.20;;;11.10;99.90;;;;;;4995928;28;20034;-75
2021/12/26 06:35:46;;;;;;;14.05;2.92;;;11.10;99.90;;;;;;4996099;28;20101;-74
2021/12/26 06:38:12;;;;;;;10.30;1.85;;;11.00;99.90;;;;;;4994596;28;20037;-75
2021/12/26 06:40:37;;;;;;;13.90;5.05;;;11.00;99.90;;;;;;4995794;28;20030;-75
2021/12/26 06:43:03;;;;;;;20.90;9.35;;;11.00;99.90;;;;;;4995705;28;20065;-74
2021/12/26 06:45:29;;;;;;;20.63;8.48;;;10.90;99.90;;;;;;4995993;28;20024;-75
2021/12/26 06:47:56;;;;;;;12.35;3.55;;;11.00;99.90;;;;;;4995680;28;20490;-74
2021/12/26 06:50:22;;;;;;;13.45;3.90;;;10.90;99.90;;;;;;4995612;28;20029;-74
2021/12/26 06:52:48;;;;;;;14.88;3.03;;;10.90;99.90;;;;;;4995594;28;20026;-74
2021/12/26 06:55:14;;;;;;;15.13;4.00;;;11.00;99.90;;;;;;4995783;28;20382;-74
2021/12/26 06:57:40;;;;;;;24.60;9.70;;;11.00;99.90;;;;;;4995479;28;20105;-75
2021/12/26 07:00:09;;;;;;;22.20;8.23;;;11.00;99.90;;;;;;4995985;28;20026;-75
2021/12/26 07:02:34;;;;;;;14.38;4.00;;;11.00;99.90;;;;;;4995256;28;20548;-75
2021/12/26 07:05:00;;;;;;;53.88;29.70;;;11.00;99.90;;;;;;4994009;28;20031;-75
2021/12/26 07:07:26;;;;;;;32.05;16.90;;;11.00;99.90;;;;;;4995641;28;20054;-76
2021/12/26 07:09:51;;;;;;;21.10;8.95;;;11.00;99.90;;;;;;4995290;28;20446;-75
2021/12/26 07:12:17;;;;;;;18.90;5.18;;;11.00;99.90;;;;;;4995180;28;20018;-76
2021/12/26 07:14:43;;;;;;;12.80;3.70;;;11.00;99.90;;;;;;4995153;28;20030;-76
2021/12/26 07:17:10;;;;;;;14.23;2.78;;;11.00;99.90;;;;;;4995391;28;20049;-76
2021/12/26 07:19:37;;;;;;;10.52;4.25;;;11.00;99.90;;;;;;4995352;28;20102;-75
2021/12/26 07:22:03;;;;;;;18.27;11.65;;;11.00;99.90;;;;;;4995343;28;20030;-75
2021/12/26 07:24:29;;;;;;;16.58;11.68;;;11.00;99.90;;;;;;4995198;28;20065;-76
2021/12/26 07:26:54;;;;;;;20.08;6.95;;;11.00;99.90;;;;;;4994950;28;20432;-75
2021/12/26 07:29:20;;;;;;;12.50;6.50;;;11.00;99.90;;;;;;4993605;28;20395;-75
2021/12/26 07:31:46;;;;;;;10.82;4.10;;;11.00;99.90;;;;;;4995048;28;20030;-75
2021/12/26 07:34:11;;;;;;;15.45;5.75;;;11.00;99.90;;;;;;4993521;28;20030;-75
2021/12/26 07:36:37;;;;;;;7.80;4.10;;;11.00;99.90;;;;;;4994743;28;20486;-75
2021/12/26 07:39:04;;;;;;;13.50;3.28;;;11.00;99.90;;;;;;4994671;28;20105;-76
2021/12/26 07:41:30;;;;;;;16.95;3.58;;;11.10;99.90;;;;;;4994604;28;20062;-75
2021/12/26 07:43:56;;;;;;;11.93;4.15;;;11.10;99.90;;;;;;4994400;28;20077;-76
2021/12/26 07:46:22;;;;;;;15.80;7.25;;;11.10;99.90;;;;;;4995115;28;20022;-76
2021/12/26 07:48:48;;;;;;;25.52;13.25;;;11.10;99.90;;;;;;4994139;28;20141;-76
2021/12/26 07:51:15;;;;;;;14.95;4.63;;;11.00;99.90;;;;;;4994480;28;20022;-75
2021/12/26 07:53:41;;;;;;;17.92;6.38;;;11.10;99.90;;;;;;4994444;28;20021;-75
2021/12/26 07:56:07;;;;;;;15.75;7.20;;;11.10;99.90;;;;;;4994972;28;20022;-75
2021/12/26 07:58:33;;;;;;;24.00;14.73;;;11.10;99.90;;;;;;4994317;28;20054;-75
2021/12/26 08:00:58;;;;;;;25.52;12.77;;;11.20;99.90;;;;;;4994352;28;20109;-76
2021/12/26 08:03:24;;;;;;;19.50;10.77;;;11.20;99.90;;;;;;4994289;28;20459;-76
2021/12/26 08:05:50;;;;;;;12.77;4.95;;;11.20;99.90;;;;;;4994267;28;20033;-75
2021/12/26 08:08:16;;;;;;;17.75;7.70;;;11.20;99.90;;;;;;4994264;28;20434;-75
2021/12/26 08:10:41;;;;;;;44.25;28.70;;;11.20;99.90;;;;;;4992883;28;20027;-76
2021/12/26 08:13:07;;;;;;;30.92;20.48;;;11.30;99.90;;;;;;4994184;28;20085;-76
2021/12/26 08:15:32;;;;;;;34.22;23.77;;;11.30;99.90;;;;;;4994111;28;20470;-76
2021/12/26 08:17:58;;;;;;;60.60;42.55;;;11.20;99.90;;;;;;4994121;28;20022;-76
2021/12/26 08:20:24;;;;;;;71.00;49.38;;;11.20;99.90;;;;;;4992810;28;20030;-76
2021/12/26 08:22:49;;;;;;;48.92;34.13;;;11.30;99.90;;;;;;4993948;28;20037;-76
2021/12/26 08:25:15;;;;;;;26.38;14.52;;;11.30;99.90;;;;;;4994003;28;20027;-76
2021/12/26 08:27:41;;;;;;;23.48;9.05;;;11.20;99.90;;;;;;4993272;28;20022;-73
2021/12/26 08:30:07;;;;;;;31.23;18.50;;;11.30;99.90;;;;;;4994008;28;20031;-73
2021/12/26 08:32:35;;;;;;;41.75;24.88;;;11.20;99.90;;;;;;4992640;28;20402;-72
2021/12/26 08:35:04;;;;;;;22.17;10.32;;;11.20;99.90;;;;;;4992685;28;20026;-73
2021/12/26 08:37:31;;;;;;;36.22;22.60;;;11.30;99.90;;;;;;4993901;28;20438;-72
2021/12/26 08:39:56;;;;;;;32.22;18.75;;;11.30;99.90;;;;;;4994071;28;20470;-73
2021/12/26 08:42:22;;;;;;;34.25;19.65;;;11.30;99.90;;;;;;4993822;28;20029;-74
2021/12/26 08:44:52;;;;;;;25.60;12.88;;;11.30;99.90;;;;;;4993383;28;20050;-73
2021/12/26 08:47:18;;;;;;;40.88;18.77;;;11.20;99.90;;;;;;4993829;28;20046;-73
2021/12/26 08:49:44;;;;;;;47.70;24.98;;;11.20;99.90;;;;;;4993846;28;20022;-73
2021/12/26 08:52:09;;;;;;;35.67;18.80;;;11.30;99.90;;;;;;4993534;28;20077;-73
2021/12/26 08:54:37;;;;;;;55.13;30.52;;;11.30;99.90;;;;;;4993765;28;20027;-75
2021/12/26 08:57:03;;;;;;;46.75;27.08;;;11.30;99.90;;;;;;4993739;28;20100;-75
2021/12/26 08:59:30;;;;;;;26.00;11.35;;;11.30;99.90;;;;;;4995757;28;20124;-75
2021/12/26 09:02:02;;;;;;;33.45;12.57;;;11.40;99.90;;;;;;4997922;28;20026;-76
2021/12/26 09:04:28;;;;;;;35.75;17.55;;;11.30;99.90;;;;;;4997736;28;20042;-74
2021/12/26 09:06:55;;;;;;;27.90;14.93;;;11.30;99.90;;;;;;4997550;28;20386;-75
2021/12/26 09:09:21;;;;;;;46.97;24.50;;;11.30;99.90;;;;;;4996222;28;20561;-75
2021/12/26 09:11:47;;;;;;;27.05;13.65;;;11.40;99.90;;;;;;4997466;28;20142;-75
2021/12/26 09:14:12;;;;;;;38.20;16.90;;;11.40;99.90;;;;;;4997402;28;20037;-76
2021/12/26 09:16:38;;;;;;;45.30;24.65;;;11.40;99.90;;;;;;4997357;28;20386;-76
2021/12/26 09:19:05;;;;;;;37.58;22.92;;;11.40;99.90;;;;;;4997379;28;20045;-75
2021/12/26 09:21:31;;;;;;;52.30;47.00;;;11.40;99.90;;;;;;4997296;28;20030;-76
2021/12/26 09:23:57;;;;;;;73.50;67.05;;;11.50;99.90;;;;;;4997435;28;20109;-76
2021/12/26 09:26:22;;;;;;;30.92;25.58;;;11.50;99.90;;;;;;4997216;28;20019;-73
2021/12/26 09:28:49;;;;;;;15.68;11.70;;;11.50;99.90;;;;;;4997132;28;20030;-73
2021/12/26 09:31:15;;;;;;;8.73;3.65;;;11.50;99.90;;;;;;4997652;28;20415;-73
2021/12/26 09:33:41;;;;;;;7.47;3.70;;;11.50;99.90;;;;;;4997061;28;20105;-73
2021/12/26 09:36:06;;;;;;;9.73;5.55;;;11.50;99.90;;;;;;4997276;28;20427;-73
2021/12/26 09:38:33;;;;;;;10.30;6.38;;;11.50;99.90;;;;;;4996080;28;20124;-73
2021/12/26 09:40:59;;;;;;;8.90;3.20;;;11.50;99.90;;;;;;4996896;28;20483;-73
2021/12/26 09:43:26;;;;;;;8.30;4.28;;;11.60;99.90;;;;;;4996600;28;20050;-73
2021/12/26 09:45:52;;;;;;;11.23;4.78;;;11.60;99.90;;;;;;4997105;28;20026;-73
2021/12/26 09:48:18;;;;;;;10.55;4.43;;;11.60;99.90;;;;;;4996760;28;20022;-73
2021/12/26 09:50:46;;;;;;;7.45;3.47;;;11.70;99.90;;;;;;4996753;28;20058;-75
2021/12/26 09:53:13;;;;;;;29.48;21.13;;;11.70;99.90;;;;;;4996672;28;20398;-74
2021/12/26 09:55:38;;;;;;;27.33;23.45;;;11.60;99.90;;;;;;4996812;28;20498;-73
2021/12/26 09:58:04;;;;;;;49.42;44.63;;;11.70;99.90;;;;;;4996616;28;20061;-74
2021/12/26 10:00:30;;;;;;;24.98;22.80;;;11.70;99.90;;;;;;4996598;28;20026;-74
2021/12/26 10:03:11;;;;;;;11.90;6.57;;;11.70;99.90;;;;;;4996464;28;20479;-73
2021/12/26 10:06:01;;;;;;;9.55;5.35;;;11.70;99.90;;;;;;4996453;28;20080;-73
2021/12/26 10:08:28;;;;;;;12.85;3.25;;;11.70;99.90;;;;;;4996961;28;20022;-74
2021/12/26 10:11:10;;;;;;;9.98;3.28;;;11.70;99.90;;;;;;4994433;28;20018;-73
2021/12/26 10:13:57;;;;;;;9.55;4.10;;;11.70;99.90;;;;;;4996939;28;20050;-74
2021/12/26 10:16:27;;;;;;;9.18;4.00;;;11.70;99.90;;;;;;4996608;28;20415;-73
2021/12/26 10:18:54;;;;;;;9.20;3.83;;;11.70;99.90;;;;;;4995854;28;20482;-74
2021/12/26 10:21:34;;;;;;;8.63;3.83;;;11.70;99.90;;;;;;4996412;28;20026;-74
2021/12/26 10:24:03;;;;;;;7.97;4.05;;;11.70;99.90;;;;;;4996415;28;20026;-73
2021/12/26 10:26:31;;;;;;;4.85;2.40;;;11.60;99.90;;;;;;4996636;28;20033;-74
2021/12/26 10:29:13;;;;;;;6.55;3.00;;;11.70;99.90;;;;;;4996375;28;20105;-74
2021/12/26 10:31:59;;;;;;;7.15;3.25;;;11.70;99.90;;;;;;4996024;28;20030;-74
2021/12/26 10:34:28;;;;;;;9.25;3.30;;;11.70;99.90;;;;;;4995531;28;20517;-75
2021/12/26 10:36:56;;;;;;;4.57;2.30;;;11.70;99.90;;;;;;4995945;28;20038;-74
2021/12/26 10:39:26;;;;;;;25.88;13.60;;;11.80;99.90;;;;;;4995879;28;20545;-75
2021/12/26 10:41:56;;;;;;;99.55;44.88;;;11.80;99.90;;;;;;4995867;28;20062;-75
2021/12/26 10:44:46;;;;;;;51.17;28.15;;;11.90;99.90;;;;;;4994197;28;20046;-75
2021/12/26 10:47:16;;;;;;;26.88;18.52;;;11.90;99.90;;;;;;4995744;28;20015;-75
2021/12/26 10:49:59;;;;;;;10.35;5.75;;;12.10;99.90;;;;;;4995720;28;20157;-75
2021/12/26 10:52:36;;;;;;;25.52;15.60;;;12.20;99.90;;;;;;4994117;28;20026;-74
2021/12/26 10:55:12;;;;;;;25.33;15.25;;;12.40;99.90;;;;;;4995901;28;20038;-75
2021/12/26 10:57:40;;;;;;;17.95;10.15;;;12.50;99.90;;;;;;4995849;28;20471;-74
2021/12/26 11:00:29;;;;;;;12.38;7.78;;;12.50;99.90;;;;;;4995481;28;20493;-74
2021/12/26 11:03:03;;;;;;;16.77;11.38;;;12.60;99.90;;;;;;4986399;28;20039;-75
2021/12/26 11:05:37;;;;;;;10.30;6.40;;;12.60;99.90;;;;;;4995970;28;20026;-74
2021/12/26 11:08:07;;;;;;;8.60;4.88;;;12.60;99.90;;;;;;4995650;28;20108;-74
2021/12/26 11:10:34;;;;;;;5.03;2.20;;;12.60;99.90;;;;;;4995557;28;20015;-74
2021/12/26 11:13:03;;;;;;;8.43;3.40;;;12.70;99.90;;;;;;4995784;28;20038;-74
2021/12/26 11:15:36;;;;;;;4.68;2.17;;;12.70;99.90;;;;;;4995174;28;20490;-74
2021/12/26 11:18:06;;;;;;;5.82;3.25;;;12.70;99.90;;;;;;4995427;28;20022;-75
2021/12/26 11:20:35;;;;;;;6.35;2.58;;;12.70;99.90;;;;;;4995139;28;20090;-74
2021/12/26 11:23:09;;;;;;;7.13;3.13;;;12.70;99.90;;;;;;4994192;28;20020;-74
2021/12/26 11:25:43;;;;;;;10.48;4.45;;;12.70;99.90;;;;;;4995287;28;20026;-74
2021/12/26 11:28:12;;;;;;;7.20;2.53;;;12.70;99.90;;;;;;4995256;28;20030;-74
2021/12/26 11:30:38;;;;;;;9.32;6.30;;;12.80;99.90;;;;;;4994909;28;20018;-74
2021/12/26 11:33:04;;;;;;;6.45;3.10;;;12.70;99.90;;;;;;4994868;28;20030;-74
2021/12/26 11:35:31;;;;;;;12.95;8.98;;;12.70;99.90;;;;;;4993536;28;20018;-74
2021/12/26 11:37:58;;;;;;;9.43;5.30;;;12.70;99.90;;;;;;4995001;28;20058;-75
2021/12/26 11:40:24;;;;;;;15.05;6.25;;;12.70;99.90;;;;;;4994633;28;20022;-74
2021/12/26 11:43:08;;;;;;;14.07;8.55;;;12.70;99.90;;;;;;4994414;28;20097;-74
2021/12/26 11:46:08;;;;;;;15.10;8.30;;;12.60;99.90;;;;;;4994920;28;20089;-75
2021/12/26 11:48:51;;;;;;;11.65;4.72;;;12.60;99.90;;;;;;4993296;28;20536;-74
2021/12/26 11:51:20;;;;;;;11.77;3.78;;;12.60;99.90;;;;;;4994802;28;20113;-74
2021/12/26 11:54:12;;;;;;;11.30;3.70;;;12.70;99.90;;;;;;4994458;28;20434;-75
2021/12/26 11:56:51;;;;;;;8.48;2.25;;;12.80;99.90;;;;;;4994716;28;20034;-74
2021/12/26 11:59:56;;;;;;;8.55;2.53;;;12.80;99.90;;;;;;4994434;28;20461;-75
2021/12/26 12:02:42;;;;;;;10.88;3.15;;;12.80;99.90;;;;;;4980311;28;20038;-74
2021/12/26 12:05:14;;;;;;;7.97;2.80;;;12.80;99.90;;;;;;4994827;28;20023;-74
2021/12/26 12:07:50;;;;;;;4.72;1.73;;;12.70;99.90;;;;;;4994855;28;20030;-75
2021/12/26 12:10:36;;;;;;;7.25;1.92;;;12.70;99.90;;;;;;4994842;28;20485;-74
2021/12/26 12:13:04;;;;;;;8.80;2.67;;;12.70;99.90;;;;;;4993009;28;20022;-74
2021/12/26 12:15:48;;;;;;;7.05;2.67;;;12.70;99.90;;;;;;4994704;28;20479;-74
2021/12/26 12:18:25;;;;;;;6.95;1.77;;;12.70;99.90;;;;;;4994650;28;20459;-75
2021/12/26 12:21:20;;;;;;;10.93;2.90;;;12.70;99.90;;;;;;4994187;28;20382;-74
2021/12/26 12:24:12;;;;;;;7.60;2.75;;;12.70;99.90;;;;;;4985230;28;20047;-74
2021/12/26 12:26:49;;;;;;;7.25;1.60;;;12.70;99.90;;;;;;4994601;28;20014;-74
2021/12/26 12:29:24;;;;;;;28.42;15.93;;;12.80;99.90;;;;;;4994501;28;20018;-74
2021/12/26 12:32:08;;;;;;;14.38;5.13;;;12.90;99.90;;;;;;4993963;28;20077;-75
2021/12/26 12:35:14;;;;;;;16.38;6.18;;;13.00;99.90;;;;;;4994102;28;20034;-74
2021/12/26 12:37:46;;;;;;;7.00;1.83;;;13.00;99.90;;;;;;4994185;28;20033;-75
2021/12/26 12:40:25;;;;;;;12.85;5.20;;;13.00;99.90;;;;;;4994044;28;20033;-75
2021/12/26 12:43:11;;;;;;;24.38;15.18;;;13.00;99.90;;;;;;4994207;28;20027;-75
2021/12/26 12:45:56;;;;;;;7.90;2.88;;;13.00;99.90;;;;;;4993887;28;20438;-75
2021/12/26 12:48:31;;;;;;;5.75;2.55;;;13.10;99.90;;;;;;4994329;28;20101;-75